Time;durP1;ratioP1;P1;durP2;ratioP2;P2;SDS_P1;SDS_P2;PMS_P1;PMS_P2;Temp;Humidity;BMP_temperature;BMP_pressure;BME280_temperature;BME280_humidity;BME280_pressure;Samples;Min_cycle;Max_cycle;Signal;HPM_P1;HPM_P2
2021/10/16 00:01:57;;;;;;;18.85;10.27;;;;;;;5.88;86.70;98712.25;5136328;27;20035;-91
2021/10/16 00:04:23;;;;;;;18.27;10.85;;;;;;;6.04;86.32;98713.00;5135113;27;20499;-92
2021/10/16 00:06:49;;;;;;;16.38;9.25;;;;;;;6.08;85.54;98705.03;5138688;27;20554;-91
2021/10/16 00:09:14;;;;;;;16.40;10.13;;;;;;;6.14;85.61;98718.19;5137780;27;20373;-91
2021/10/16 00:11:40;;;;;;;16.10;10.20;;;;;;;6.05;86.21;98714.75;5136690;27;20036;-91
2021/10/16 00:14:08;;;;;;;16.73;9.68;;;;;;;6.06;85.45;98733.22;5141441;27;20069;-92
2021/10/16 00:16:33;;;;;;;17.20;10.32;;;;;;;5.87;85.24;98715.75;5133512;27;20039;-93
2021/10/16 00:18:59;;;;;;;16.92;9.80;;;;;;;5.90;85.51;98727.19;5137129;27;20039;-92
2021/10/16 00:21:25;;;;;;;18.40;9.52;;;;;;;5.83;86.15;98736.00;5141038;27;20088;-91
2021/10/16 00:23:51;;;;;;;14.73;9.00;;;;;;;5.71;85.78;98704.47;5140874;27;20134;-91
2021/10/16 00:26:17;;;;;;;16.38;9.45;;;;;;;5.62;86.47;98696.66;5139261;27;20059;-93
2021/10/16 00:28:43;;;;;;;15.65;8.80;;;;;;;5.70;85.91;98723.81;5135068;27;20035;-91
2021/10/16 00:31:10;;;;;;;15.13;8.52;;;;;;;5.72;85.90;98727.31;5135606;27;20123;-92
2021/10/16 00:33:37;;;;;;;15.95;8.90;;;;;;;5.66;85.88;98728.25;5135471;27;20501;-90
2021/10/16 00:36:03;;;;;;;15.45;8.90;;;;;;;5.70;87.30;98739.66;5141373;27;20134;-91
2021/10/16 00:38:29;;;;;;;17.92;9.77;;;;;;;5.58;87.24;98729.22;5138763;27;20138;-91
2021/10/16 00:40:54;;;;;;;15.10;9.25;;;;;;;5.55;87.42;98736.25;5139453;27;20044;-92
2021/10/16 00:43:20;;;;;;;15.38;9.50;;;;;;;5.54;87.38;98736.25;5134876;27;20409;-90
2021/10/16 00:45:49;;;;;;;16.90;8.63;;;;;;;5.50;87.47;98729.25;5138572;27;20122;-91
2021/10/16 00:48:16;;;;;;;16.15;8.50;;;;;;;5.52;87.95;98725.72;5134677;27;20477;-92
2021/10/16 00:50:42;;;;;;;16.92;8.75;;;;;;;5.40;87.81;98706.47;5128065;27;20104;-91
2021/10/16 00:53:08;;;;;;;17.70;9.95;;;;;;;5.50;87.50;98721.34;5127807;27;20053;-91
2021/10/16 00:55:34;;;;;;;20.13;11.10;;;;;;;5.47;88.18;98701.16;5130196;27;20031;-91
2021/10/16 00:58:01;;;;;;;19.15;11.43;;;;;;;5.72;87.98;98707.06;5126048;27;20031;-92
2021/10/16 01:00:27;;;;;;;17.88;10.20;;;;;;;5.81;87.02;98707.88;5124421;27;20089;-90
2021/10/16 01:02:53;;;;;;;16.88;9.90;;;;;;;5.67;86.88;98689.56;5128042;27;20039;-90
2021/10/16 01:05:21;;;;;;;20.25;11.43;;;;;;;5.70;86.55;98708.88;5127089;27;20556;-91
2021/10/16 01:07:47;;;;;;;16.98;10.68;;;;;;;5.65;87.63;98696.59;5123923;27;20114;-92
2021/10/16 01:10:13;;;;;;;20.25;11.65;;;;;;;5.76;86.77;98698.25;5126672;27;20043;-91
2021/10/16 01:12:40;;;;;;;21.02;12.25;;;;;;;5.71;86.52;98688.66;5125464;27;20046;-91
2021/10/16 01:15:08;;;;;;;20.15;11.98;;;;;;;5.86;85.87;98703.47;5125648;27;20039;-89
2021/10/16 01:17:35;;;;;;;19.70;11.63;;;;;;;5.72;86.27;98690.38;5124580;27;20059;-91
2021/10/16 01:20:06;;;;;;;19.83;12.05;;;;;;;5.89;86.33;98714.84;5125449;27;20134;-92
2021/10/16 01:22:35;;;;;;;19.20;11.25;;;;;;;5.86;86.45;98708.75;5129689;27;20039;-90
2021/10/16 01:25:03;;;;;;;19.15;10.57;;;;;;;5.76;85.72;98713.22;5126620;27;20042;-90
2021/10/16 01:27:31;;;;;;;16.90;10.80;;;;;;;5.72;85.89;98722.91;5128311;27;20039;-91
2021/10/16 01:29:57;;;;;;;19.60;11.70;;;;;;;5.57;86.93;98712.47;5124462;27;20067;-91
2021/10/16 01:32:23;;;;;;;17.80;10.35;;;;;;;5.56;87.63;98721.31;5121351;27;20043;-90
2021/10/16 01:34:49;;;;;;;17.15;9.73;;;;;;;5.58;87.83;98714.25;5124522;27;20369;-90
2021/10/16 01:37:15;;;;;;;19.13;10.15;;;;;;;5.69;87.34;98708.88;5125782;27;20036;-92
2021/10/16 01:39:42;;;;;;;16.25;9.82;;;;;;;5.62;87.27;98705.44;5124412;27;20898;-91
2021/10/16 01:42:12;;;;;;;20.83;10.23;;;;;;;5.57;87.82;98691.38;5123520;27;20035;-90
2021/10/16 01:44:38;;;;;;;16.75;9.48;;;;;;;5.52;87.82;98694.06;5123511;27;20442;-91
2021/10/16 01:47:04;;;;;;;16.90;9.68;;;;;;;5.48;88.16;98702.88;5125325;27;20038;-91
2021/10/16 01:49:30;;;;;;;16.27;8.95;;;;;;;5.56;88.27;98702.84;5128888;27;20556;-90
2021/10/16 01:51:56;;;;;;;17.58;8.32;;;;;;;5.66;88.28;98707.16;5127312;27;20031;-89
2021/10/16 01:54:22;;;;;;;15.38;8.32;;;;;;;5.56;88.00;98690.50;5122184;27;20443;-92
2021/10/16 01:56:49;;;;;;;17.23;8.95;;;;;;;5.53;88.03;98684.38;5123960;27;20046;-91
2021/10/16 01:59:17;;;;;;;14.93;9.52;;;;;;;5.53;88.43;98700.19;5124273;27;20515;-91
2021/10/16 02:01:43;;;;;;;19.73;11.77;;;;;;;5.47;88.05;98692.38;5120757;27;20043;-90
2021/10/16 02:04:09;;;;;;;21.00;12.02;;;;;;;5.46;88.06;98699.38;5124772;27;20041;-91
2021/10/16 02:06:35;;;;;;;17.67;11.15;;;;;;;5.46;88.08;98701.16;5126566;27;20031;-91
2021/10/16 02:09:01;;;;;;;15.30;9.40;;;;;;;5.44;88.28;98701.16;5121370;27;20050;-91
2021/10/16 02:11:27;;;;;;;16.85;10.20;;;;;;;5.31;88.23;98694.22;5123480;27;20035;-91
2021/10/16 02:13:54;;;;;;;17.08;9.68;;;;;;;5.25;87.94;98695.16;5125962;27;20044;-90
2021/10/16 02:16:20;;;;;;;16.58;9.63;;;;;;;5.15;89.16;98691.69;5118479;27;20118;-91
2021/10/16 02:18:46;;;;;;;14.77;9.25;;;;;;;5.18;89.04;98703.09;5125100;27;20084;-91
2021/10/16 02:21:12;;;;;;;15.55;9.40;;;;;;;5.12;88.86;98702.28;5125991;27;20405;-91
2021/10/16 02:23:38;;;;;;;17.73;10.63;;;;;;;4.94;88.58;98681.28;5122667;27;20537;-91
2021/10/16 02:26:04;;;;;;;17.52;10.65;;;;;;;5.01;88.78;98687.38;5123885;27;20096;-90
2021/10/16 02:28:30;;;;;;;20.50;10.65;;;;;;;5.06;90.10;98702.31;5122457;27;20488;-91
2021/10/16 02:30:57;;;;;;;15.45;8.90;;;;;;;5.14;90.60;98708.41;5123547;27;20044;-89
2021/10/16 02:33:23;;;;;;;15.20;7.13;;;;;;;5.15;90.74;98690.81;5127830;27;20118;-91
2021/10/16 02:35:49;;;;;;;16.15;7.80;;;;;;;5.10;90.72;98696.13;5121863;27;20039;-93
2021/10/16 02:38:14;;;;;;;17.23;9.57;;;;;;;5.11;90.17;98689.97;5124439;27;20048;-91
2021/10/16 02:40:40;;;;;;;18.52;10.25;;;;;;;5.09;89.41;98689.09;5129572;27;20042;-91
2021/10/16 02:43:06;;;;;;;17.58;10.02;;;;;;;5.03;89.77;98694.44;5121008;27;20047;-90
2021/10/16 02:45:32;;;;;;;19.73;10.82;;;;;;;5.00;89.65;98699.69;5117963;27;20370;-91
2021/10/16 02:47:59;;;;;;;16.35;9.48;;;;;;;4.94;89.47;98686.56;5123457;27;20031;-91
2021/10/16 02:50:25;;;;;;;16.02;8.27;;;;;;;4.91;89.44;98687.44;5116170;28;20036;-91
2021/10/16 02:52:51;;;;;;;17.83;10.10;;;;;;;5.00;90.16;98696.19;5122119;27;20089;-91
2021/10/16 02:55:17;;;;;;;14.70;7.78;;;;;;;4.97;92.04;98677.78;5124199;27;20089;-91
2021/10/16 02:57:43;;;;;;;15.43;8.18;;;;;;;5.00;92.57;98667.22;5117275;27;20043;-90
2021/10/16 03:00:10;;;;;;;16.40;7.38;;;;;;;5.06;92.60;98667.16;5126383;27;20042;-91
2021/10/16 03:02:36;;;;;;;15.40;7.90;;;;;;;5.27;92.37;98695.13;5119699;27;20098;-90
2021/10/16 03:05:03;;;;;;;14.90;7.97;;;;;;;5.18;91.93;98667.06;5124801;27;20067;-91
2021/10/16 03:07:29;;;;;;;16.98;9.18;;;;;;;5.18;91.01;98672.34;5121809;27;20399;-92
2021/10/16 03:09:55;;;;;;;17.17;9.63;;;;;;;5.19;90.45;98689.06;5118496;27;20034;-91
2021/10/16 03:12:21;;;;;;;18.50;9.18;;;;;;;5.04;89.63;98679.47;5119856;27;20039;-91
2021/10/16 03:14:47;;;;;;;17.30;9.40;;;;;;;4.96;90.13;98676.88;5120613;27;20842;-91
2021/10/16 03:17:13;;;;;;;18.52;9.27;;;;;;;4.92;89.66;98681.31;5118620;27;20112;-91
2021/10/16 03:19:39;;;;;;;19.65;9.30;;;;;;;4.96;90.42;98690.06;5122930;27;20066;-91
2021/10/16 03:22:08;;;;;;;14.52;7.15;;;;;;;4.98;90.72;98696.19;5123204;27;20063;-91
2021/10/16 03:24:34;;;;;;;12.93;7.20;;;;;;;4.94;91.34;98691.81;5122810;27;20047;-91
2021/10/16 03:27:00;;;;;;;14.60;7.22;;;;;;;4.99;91.05;98712.88;5121451;27;20058;-91
2021/10/16 03:29:26;;;;;;;16.85;8.02;;;;;;;4.86;90.59;98702.41;5124288;27;20035;-90
2021/10/16 03:31:52;;;;;;;16.65;8.52;;;;;;;4.94;90.74;98695.34;5117158;27;20438;-92
2021/10/16 03:34:18;;;;;;;15.40;8.90;;;;;;;4.88;90.15;98702.41;5122091;27;20070;-92
2021/10/16 03:36:44;;;;;;;13.88;8.52;;;;;;;4.68;89.88;98681.44;5124389;28;20564;-90
2021/10/16 03:39:11;;;;;;;16.27;9.90;;;;;;;4.70;90.03;98685.78;5125048;28;20063;-93
2021/10/16 03:41:37;;;;;;;13.07;7.85;;;;;;;4.78;90.72;98696.31;5120008;28;20040;-91
2021/10/16 03:44:03;;;;;;;13.63;7.22;;;;;;;4.71;90.65;98690.19;5121001;28;20035;-91
2021/10/16 03:46:29;;;;;;;15.15;8.68;;;;;;;4.67;90.57;98679.69;5122744;27;20100;-90
2021/10/16 03:48:55;;;;;;;13.70;8.32;;;;;;;4.61;90.89;98683.22;5123859;28;20045;-91
2021/10/16 03:51:21;;;;;;;14.70;8.80;;;;;;;4.63;90.14;98688.47;5121176;28;20511;-92
2021/10/16 03:53:47;;;;;;;14.35;8.82;;;;;;;4.66;90.89;98699.91;5122806;28;20039;-91
2021/10/16 03:56:14;;;;;;;14.38;8.75;;;;;;;4.60;91.13;98686.75;5125117;28;20044;-92
2021/10/16 03:58:40;;;;;;;13.45;6.85;;;;;;;4.56;91.77;98681.50;5120091;27;20059;-92
2021/10/16 04:01:07;;;;;;;13.55;7.13;;;;;;;4.65;91.97;98695.50;5115813;28;20035;-91
2021/10/16 04:03:35;;;;;;;14.02;7.68;;;;;;;4.58;92.13;98683.25;5121987;28;20066;-90
2021/10/16 04:06:01;;;;;;;12.15;7.47;;;;;;;4.64;91.76;98703.38;5118789;27;20071;-91
2021/10/16 04:08:27;;;;;;;14.25;9.18;;;;;;;4.70;90.98;98717.41;5120437;28;20031;-92
2021/10/16 04:10:53;;;;;;;17.58;9.77;;;;;;;4.65;90.68;98711.28;5120354;28;20292;-91
2021/10/16 04:13:21;;;;;;;17.23;9.70;;;;;;;4.64;91.34;98708.66;5126092;27;20047;-91
2021/10/16 04:15:46;;;;;;;15.90;8.40;;;;;;;4.64;92.10;98706.94;5121792;27;20045;-91
2021/10/16 04:18:12;;;;;;;11.70;7.03;;;;;;;4.61;92.74;98703.41;5121443;28;20035;-92
2021/10/16 04:20:38;;;;;;;14.10;6.65;;;;;;;4.68;93.00;98708.66;5118047;28;20047;-90
2021/10/16 04:23:04;;;;;;;12.98;7.18;;;;;;;4.76;92.55;98718.28;5119104;28;20058;-90
2021/10/16 04:25:30;;;;;;;18.40;10.48;;;;;;;4.69;90.62;98720.06;5122310;27;20497;-91
2021/10/16 04:27:56;;;;;;;21.67;11.02;;;;;;;4.71;90.26;98729.72;5128114;27;20057;-91
2021/10/16 04:30:24;;;;;;;20.05;11.00;;;;;;;4.56;90.13;98708.72;5118387;27;20031;-90
2021/10/16 04:32:50;;;;;;;19.95;11.00;;;;;;;4.52;89.95;98713.09;5123380;27;20084;-90
2021/10/16 04:35:17;;;;;;;17.48;10.05;;;;;;;4.40;90.49;98707.91;5119763;27;20036;-90
2021/10/16 04:37:43;;;;;;;17.13;9.57;;;;;;;4.60;90.47;98726.25;5124339;27;20036;-91
2021/10/16 04:43:10;;;;;;;15.80;8.75;;;;;;;4.43;90.93;98712.28;5183591;27;20363;-91
2021/10/16 04:45:36;;;;;;;15.23;8.65;;;;;;;4.45;90.72;98728.94;5143543;27;20043;-92
2021/10/16 04:48:05;;;;;;;15.77;9.02;;;;;;;4.38;90.30;98730.72;5146811;27;20036;-91
2021/10/16 04:50:31;;;;;;;20.63;9.53;;;;;;;4.26;90.70;98725.47;5145090;27;20038;-91
2021/10/16 04:52:57;;;;;;;12.40;7.65;;;;;;;4.16;91.32;98708.81;5144282;27;20278;-91
2021/10/16 04:55:23;;;;;;;16.38;6.88;;;;;;;4.22;92.28;98713.19;5145202;27;20429;-92
2021/10/16 04:57:49;;;;;;;12.57;6.50;;;;;;;4.20;92.95;98700.03;5144753;27;20062;-90
2021/10/16 05:00:17;;;;;;;13.15;6.63;;;;;;;4.31;93.09;98700.88;5144787;27;20036;-92
2021/10/16 05:02:43;;;;;;;15.13;6.78;;;;;;;4.48;92.91;98710.47;5145965;27;20059;-91
2021/10/16 05:05:09;;;;;;;18.25;9.18;;;;;;;4.48;92.43;98708.72;5147216;27;20058;-91
2021/10/16 05:07:35;;;;;;;16.25;8.70;;;;;;;4.37;91.88;98709.66;5142475;27;20039;-91
2021/10/16 05:10:01;;;;;;;18.45;9.32;;;;;;;4.41;91.01;98728.06;5141697;27;20135;-91
2021/10/16 05:12:27;;;;;;;16.92;8.77;;;;;;;4.45;90.40;98735.06;5144027;27;20131;-92
2021/10/16 05:14:53;;;;;;;15.80;9.23;;;;;;;4.27;90.18;98711.41;5143719;27;20047;-92
2021/10/16 05:17:20;;;;;;;17.02;9.93;;;;;;;4.31;89.58;98724.56;5141855;27;20567;-91
2021/10/16 05:19:46;;;;;;;17.20;9.65;;;;;;;4.10;90.15;98714.13;5137463;27;20096;-90
2021/10/16 05:22:12;;;;;;;15.35;9.10;;;;;;;4.21;90.70;98720.22;5141650;27;20039;-91
2021/10/16 05:24:37;;;;;;;15.85;8.70;;;;;;;4.15;91.15;98707.06;5147345;27;20027;-92
2021/10/16 05:27:03;;;;;;;19.50;10.55;;;;;;;4.18;91.08;98708.81;5145014;27;20078;-92
2021/10/16 05:29:29;;;;;;;15.90;9.45;;;;;;;4.25;90.16;98724.59;5141754;27;20434;-92
2021/10/16 05:31:55;;;;;;;19.33;9.68;;;;;;;4.27;89.97;98721.94;5142912;27;20377;-91
2021/10/16 05:34:22;;;;;;;19.02;10.35;;;;;;;4.24;89.65;98722.84;5144769;27;20073;-93
2021/10/16 05:36:48;;;;;;;17.77;9.88;;;;;;;4.25;89.44;98728.97;5143019;27;20085;-93
2021/10/16 05:39:14;;;;;;;18.10;9.95;;;;;;;4.11;89.89;98703.56;5143044;27;20043;-92
2021/10/16 05:41:40;;;;;;;17.17;9.52;;;;;;;4.19;89.88;98722.00;5142103;27;20613;-92
2021/10/16 05:44:06;;;;;;;19.88;10.35;;;;;;;4.24;89.78;98743.03;5144810;27;20057;-92
2021/10/16 05:46:36;;;;;;;19.85;10.60;;;;;;;4.26;90.35;98742.13;5146610;27;20056;-92
2021/10/16 05:49:03;;;;;;;16.23;8.90;;;;;;;4.32;90.46;98750.03;5144085;27;20122;-93
2021/10/16 05:51:30;;;;;;;13.20;7.88;;;;;;;4.31;91.14;98719.31;5146989;27;20035;-92
2021/10/16 05:53:56;;;;;;;14.75;7.82;;;;;;;4.54;91.77;98747.34;5135713;27;20047;-93
2021/10/16 05:56:22;;;;;;;14.88;6.82;;;;;;;4.52;92.03;98717.50;5128053;27;20062;-92
2021/10/16 05:58:48;;;;;;;12.85;6.80;;;;;;;4.82;92.96;98731.44;5130292;27;20492;-93
2021/10/16 06:01:14;;;;;;;15.38;6.82;;;;;;;5.19;91.75;98752.31;5129707;27;20035;-91
2021/10/16 06:03:40;;;;;;;14.25;6.50;;;;;;;5.48;89.89;98733.66;5129487;27;20426;-91
2021/10/16 06:06:05;;;;;;;10.10;6.32;;;;;;;5.70;88.64;98715.91;5131114;27;20054;-92
2021/10/16 06:08:33;;;;;;;11.50;6.15;;;;;;;6.21;86.57;98745.38;5136346;27;20043;-93
2021/10/16 06:10:59;;;;;;;13.70;6.97;;;;;;;6.84;82.74;98749.97;5127288;27;20070;-91
2021/10/16 06:13:24;;;;;;;10.40;5.60;;;;;;;7.04;81.56;98747.06;5132826;27;20438;-92
2021/10/16 06:15:50;;;;;;;11.88;5.80;;;;;;;7.10;80.89;98740.84;5131336;27;20046;-91
2021/10/16 06:18:17;;;;;;;10.45;5.50;;;;;;;7.25;79.80;98745.91;5127424;27;20161;-93
2021/10/16 06:20:43;;;;;;;11.60;5.95;;;;;;;7.28;78.46;98719.41;5127329;27;20035;-91
2021/10/16 06:23:09;;;;;;;9.65;5.30;;;;;;;7.45;77.48;98721.81;5133916;27;20481;-94
2021/10/16 06:25:36;;;;;;;11.82;5.95;;;;;;;7.69;77.50;98764.66;5133219;27;20507;-93
2021/10/16 06:28:02;;;;;;;10.85;5.50;;;;;;;7.71;77.20;98754.94;5117270;28;20154;-93
2021/10/16 06:30:28;;;;;;;10.80;5.88;;;;;;;7.75;76.51;98757.50;5122036;27;20388;-93
2021/10/16 06:32:54;;;;;;;10.10;6.00;;;;;;;7.87;75.91;98771.44;5132948;27;20047;-93
2021/10/16 06:35:19;;;;;;;11.38;5.97;;;;;;;7.91;76.04;98766.06;5132355;27;20092;-95
2021/10/16 06:37:45;;;;;;;9.15;5.38;;;;;;;8.02;76.10;98766.78;5117232;28;20409;-94
2021/10/16 06:40:11;;;;;;;12.30;6.03;;;;;;;8.02;76.76;98768.53;5117153;28;20485;-95
2021/10/16 06:42:39;;;;;;;12.13;5.47;;;;;;;8.06;77.31;98770.22;5117046;28;20493;-94
2021/10/16 06:45:06;;;;;;;11.10;5.30;;;;;;;8.11;77.61;98770.16;5118328;28;20051;-94
2021/10/16 06:47:32;;;;;;;10.43;6.13;;;;;;;8.18;76.96;98754.13;5118701;28;20489;-96
2021/10/16 06:49:57;;;;;;;10.93;5.90;;;;;;;8.19;76.95;98749.72;5118638;28;20135;-95
2021/10/16 06:52:23;;;;;;;9.68;5.55;;;;;;;8.35;75.93;98751.19;5119367;28;20043;-95
2021/10/16 06:54:49;;;;;;;10.10;5.07;;;;;;;8.48;75.98;98767.78;5119497;28;20043;-95
2021/10/16 06:57:15;;;;;;;8.43;5.32;;;;;;;8.65;76.16;98788.63;5119379;28;20039;-96
2021/10/16 06:59:42;;;;;;;9.57;5.45;;;;;;;8.72;76.12;98784.97;5117770;28;20039;-94
2021/10/16 07:02:09;;;;;;;9.88;5.32;;;;;;;8.70;76.11;98776.19;5117090;28;20397;-94
2021/10/16 07:04:35;;;;;;;10.23;5.57;;;;;;;8.80;75.38;98763.59;5115685;28;20043;-95
2021/10/16 07:07:01;;;;;;;10.60;6.32;;;;;;;9.08;74.71;98787.78;5131206;27;20042;-96
2021/10/16 07:09:27;;;;;;;7.95;4.70;;;;;;;9.25;73.96;98771.50;5138566;27;20039;-96
2021/10/16 07:11:53;;;;;;;8.63;4.88;;;;;;;9.28;72.95;98754.66;5137978;27;20162;-96
2021/10/16 07:14:19;;;;;;;8.73;4.57;;;;;;;9.46;73.02;98768.38;5139049;27;20493;-95
2021/10/16 07:16:47;;;;;;;9.50;5.03;;;;;;;9.51;73.48;98770.06;5143124;27;20050;-96
2021/10/16 07:19:13;;;;;;;11.02;5.15;;;;;;;9.69;72.01;98784.69;5144791;27;20043;-96
2021/10/16 07:21:39;;;;;;;10.00;5.50;;;;;;;9.64;71.58;98764.44;5145459;27;20060;-96
2021/10/16 07:24:06;;;;;;;10.25;5.82;;;;;;;9.79;71.01;98762.34;5147440;27;20055;-95
2021/10/16 07:26:32;;;;;;;11.35;4.95;;;;;;;10.05;69.44;98772.31;5142433;27;20374;-96
2021/10/16 07:28:58;;;;;;;8.75;4.78;;;;;;;10.23;69.71;98766.53;5142048;27;20442;-96
2021/10/16 07:31:24;;;;;;;7.60;4.05;;;;;;;10.56;66.54;98757.72;5142898;27;20039;-96
2021/10/16 07:33:54;;;;;;;7.35;4.40;;;;;;;10.75;66.62;98748.31;5141251;27;20061;-96
2021/10/16 07:36:20;;;;;;;8.02;3.95;;;;;;;11.05;64.33;98761.69;5134241;27;20043;-96
2021/10/16 07:38:46;;;;;;;8.02;4.18;;;;;;;11.19;64.34;98755.94;5129443;27;20392;-95
2021/10/16 07:41:12;;;;;;;7.50;4.10;;;;;;;11.40;63.00;98765.09;5144023;27;20058;-96
2021/10/16 07:43:38;;;;;;;8.75;4.40;;;;;;;11.48;62.17;98776.38;5135807;27;20040;-94
2021/10/16 07:46:04;;;;;;;8.40;4.53;;;;;;;11.79;62.82;98797.59;5123595;28;20095;-95
2021/10/16 07:48:30;;;;;;;8.27;5.03;;;;;;;11.80;62.22;98775.38;5141325;27;20059;-96
2021/10/16 07:50:58;;;;;;;7.18;4.20;;;;;;;12.00;61.02;98796.06;5144986;27;20046;-95
2021/10/16 07:53:23;;;;;;;8.20;5.10;;;;;;;12.05;61.81;98762.13;5144014;27;20134;-95
2021/10/16 07:55:49;;;;;;;7.80;4.40;;;;;;;12.31;60.27;98787.91;5137965;27;20477;-95
2021/10/16 07:58:16;;;;;;;9.52;5.32;;;;;;;12.36;59.86;98768.22;5144516;27;20069;-96
2021/10/16 08:00:42;;;;;;;12.23;6.18;;;;;;;12.47;60.65;98763.38;5134077;27;20043;-94
2021/10/16 08:03:09;;;;;;;10.10;5.25;;;;;;;12.65;58.87;98762.75;5127324;28;20046;-95
2021/10/16 08:05:37;;;;;;;9.52;5.63;;;;;;;12.85;58.80;98794.06;5124612;27;20052;-95
2021/10/16 08:08:05;;;;;;;9.82;5.15;;;;;;;12.93;58.81;98809.81;5141277;27;20039;-94
2021/10/16 08:10:34;;;;;;;9.82;5.13;;;;;;;13.03;58.56;98802.31;5130508;27;20147;-96
2021/10/16 08:13:00;;;;;;;8.57;5.30;;;;;;;12.93;58.89;98767.97;5147398;27;20031;-95
2021/10/16 08:15:26;;;;;;;8.50;5.68;;;;;;;13.12;58.88;98789.53;5145629;27;20046;-96
2021/10/16 08:17:52;;;;;;;10.10;6.22;;;;;;;13.11;57.89;98774.41;5144863;27;20055;-95
2021/10/16 08:20:19;;;;;;;6.85;4.15;;;;;;;13.34;56.33;98802.97;5146335;27;20055;-96
2021/10/16 08:22:45;;;;;;;6.28;4.18;;;;;;;13.30;56.05;98773.78;5145742;27;20043;-95
2021/10/16 08:25:13;;;;;;;9.00;4.70;;;;;;;13.50;56.09;98794.38;5146731;27;20484;-95
2021/10/16 08:27:40;;;;;;;8.32;5.03;;;;;;;13.40;56.73;98779.63;5135360;27;20126;-94
2021/10/16 08:30:09;;;;;;;9.70;4.80;;;;;;;13.47;56.32;98787.34;5124921;28;20175;-96
2021/10/16 08:32:35;;;;;;;;;;;;;;;13.52;55.63;98821.91;5123304;28;20035;-96
2021/10/16 08:35:01;;;;;;;7.07;4.32;;;;;;;13.44;54.49;98790.13;5123720;28;19963;-96
2021/10/16 08:37:27;;;;;;;7.70;4.20;;;;;;;13.34;54.01;98778.94;5137220;27;20094;-95
2021/10/16 08:39:53;;;;;;;8.93;4.38;;;;;;;13.17;54.94;98781.34;5135107;28;20054;-96
2021/10/16 08:42:21;;;;;;;7.43;4.38;;;;;;;13.33;54.87;98793.19;5134220;27;20051;-95
2021/10/16 08:44:47;;;;;;;10.30;4.53;;;;;;;13.53;52.94;98786.22;5127408;27;20039;-93
2021/10/16 08:47:15;;;;;;;10.75;4.55;;;;;;;13.68;54.83;98798.97;5130709;27;20054;-94
2021/10/16 08:49:44;;;;;;;9.05;4.20;;;;;;;13.77;53.85;98804.00;5131375;28;20040;-93
2021/10/16 08:52:10;;;;;;;9.35;4.28;;;;;;;14.01;53.00;98803.94;5138004;27;20492;-95
2021/10/16 08:54:41;;;;;;;7.05;4.30;;;;;;;14.07;53.37;98781.41;5127574;27;20053;-95
2021/10/16 08:57:38;;;;;;;8.75;4.65;;;;;;;14.07;52.66;98801.00;5134902;28;20097;-96
2021/10/16 09:04:45;;;;;;;7.57;4.13;;;;;;;14.35;52.74;98778.47;5043148;28;20097;-93
2021/10/16 09:07:37;;;;;;;;;;;;;;;14.59;52.49;98819.38;5100305;28;20118;-95
2021/10/16 09:11:18;;;;;;;7.63;4.50;;;;;;;14.24;53.59;98799.44;5093536;28;19955;-95
2021/10/16 09:25:31;;;;;;;8.32;3.85;;;;;;;14.88;51.37;98777.97;4995179;28;20069;-96
2021/10/16 09:29:01;;;;;;;10.95;5.43;;;;;;;15.03;51.49;98783.56;4995323;28;20104;-96
2021/10/16 09:32:58;;;;;;;10.45;4.40;;;;;;;14.93;50.97;98770.59;4910385;28;20052;-93
2021/10/16 09:36:30;;;;;;;10.20;5.85;;;;;;;15.20;52.09;98816.72;4905627;29;20056;-92
2021/10/16 09:43:53;;;;;;;;;;;;;;;;;;;;;
2021/10/16 09:46:38;;;;;;;8.70;4.70;;;;;;;14.97;50.18;98769.53;4845248;29;20047;-96
2021/10/16 09:49:07;;;;;;;9.50;5.15;;;;;;;15.02;51.66;98771.13;4888817;29;20120;-93
2021/10/16 09:51:49;;;;;;;8.50;3.92;;;;;;;15.53;49.73;98800.03;4942505;29;20043;-95
2021/10/16 09:54:17;;;;;;;10.18;5.03;;;;;;;15.48;50.37;98777.03;4941746;29;20036;-95
2021/10/16 09:56:45;;;;;;;8.68;4.43;;;;;;;15.62;49.04;98777.28;4950254;29;20490;-96
2021/10/16 09:59:15;;;;;;;9.30;4.80;;;;;;;15.75;49.20;98775.78;4947452;29;20044;-95
2021/10/16 10:01:43;;;;;;;11.13;5.63;;;;;;;15.70;49.51;98775.09;5007210;28;20076;-96
2021/10/16 10:04:10;;;;;;;9.38;4.38;;;;;;;15.74;49.69;98787.47;5026666;28;20050;-96
2021/10/16 10:06:38;;;;;;;8.25;4.20;;;;;;;15.62;48.82;98782.63;5024441;28;20099;-95
2021/10/16 10:09:08;;;;;;;8.85;4.78;;;;;;;15.60;49.01;98781.84;5023530;28;20209;-94
2021/10/16 10:11:35;;;;;;;6.72;4.32;;;;;;;15.71;49.43;98805.47;5020417;28;20045;-95
2021/10/16 10:14:04;;;;;;;8.63;4.05;;;;;;;15.70;50.17;98801.91;5020965;28;20120;-95
2021/10/16 10:16:36;;;;;;;7.45;4.35;;;;;;;15.67;49.01;98772.56;5020663;28;20069;-95
2021/10/16 10:19:08;;;;;;;8.57;4.00;;;;;;;15.87;48.54;98797.56;5039525;28;20082;-95
2021/10/16 10:21:36;;;;;;;8.15;3.88;;;;;;;15.67;49.65;98759.16;5101020;28;20103;-95
2021/10/16 10:24:04;;;;;;;8.35;4.15;;;;;;;15.84;48.95;98785.19;5132382;27;20049;-95
2021/10/16 10:26:32;;;;;;;8.73;4.32;;;;;;;15.80;49.74;98787.13;5124501;28;20043;-95
2021/10/16 10:29:00;;;;;;;8.77;3.60;;;;;;;15.92;48.67;98771.44;5126667;28;20048;-95
2021/10/16 10:31:57;;;;;;;7.32;4.05;;;;;;;15.94;49.92;98813.31;5127317;28;20086;-96
2021/10/16 10:34:30;;;;;;;6.60;4.30;;;;;;;16.15;48.58;98765.75;5127323;28;20046;-95
2021/10/16 10:36:59;;;;;;;6.43;3.80;;;;;;;16.31;48.41;98782.00;5125459;28;20074;-96
2021/10/16 10:39:44;;;;;;;9.40;4.10;;;;;;;16.42;48.86;98778.75;5127539;28;20045;-94
2021/10/16 10:42:43;;;;;;;6.45;4.00;;;;;;;16.67;49.04;98796.28;5114779;28;20039;-93
2021/10/16 10:45:26;;;;;;;7.63;3.80;;;;;;;16.51;49.35;98789.03;5135525;27;20074;-95
2021/10/16 10:48:02;;;;;;;6.38;3.58;;;;;;;16.48;48.17;98758.78;5141492;27;20131;-95
2021/10/16 10:51:01;;;;;;;8.00;4.03;;;;;;;16.84;48.40;98794.50;5140848;27;20035;-94
2021/10/16 10:53:28;;;;;;;;;;;;;;;16.60;47.51;98804.66;5126872;27;20063;-94
2021/10/16 10:55:57;;;;;;;6.95;3.40;;;;;;;16.52;48.51;98780.00;5132061;27;19915;-90
2021/10/16 10:58:23;;;;;;;9.60;3.60;;;;;;;16.72;48.22;98775.44;5125913;27;20043;-92
2021/10/16 11:00:52;;;;;;;5.65;3.72;;;;;;;17.07;47.46;98787.06;5129836;27;20388;-93
2021/10/16 11:03:45;;;;;;;5.88;3.75;;;;;;;17.24;47.13;98797.75;5129442;27;20050;-93
2021/10/16 11:06:18;;;;;;;6.57;3.42;;;;;;;16.95;47.23;98774.25;5123850;27;20039;-95
2021/10/16 11:08:48;;;;;;;8.50;3.83;;;;;;;16.54;48.92;98770.06;5139239;27;20039;-94
2021/10/16 11:11:14;;;;;;;9.80;3.60;;;;;;;16.42;48.46;98789.50;5138305;27;20122;-93
2021/10/16 11:13:40;;;;;;;6.95;3.80;;;;;;;16.21;49.22;98778.88;5140709;27;20070;-93
2021/10/16 11:16:06;;;;;;;6.95;3.92;;;;;;;15.87;50.90;98786.84;5128767;27;20135;-94
2021/10/16 11:18:33;;;;;;;8.05;3.83;;;;;;;15.89;50.38;98775.09;5129086;27;20067;-92
2021/10/16 11:21:03;;;;;;;6.45;3.40;;;;;;;16.17;51.28;98790.72;5131373;27;20043;-93
2021/10/16 11:23:29;;;;;;;7.47;3.78;;;;;;;16.32;49.80;98772.97;5137420;27;20031;-91
2021/10/16 11:25:57;;;;;;;5.82;4.05;;;;;;;16.18;49.41;98789.78;5128622;27;20576;-94
2021/10/16 11:28:23;;;;;;;8.05;4.22;;;;;;;16.27;49.57;98774.16;5124891;27;20031;-93
2021/10/16 11:30:51;;;;;;;6.93;3.92;;;;;;;16.22;49.59;98771.69;5132432;27;20039;-92
2021/10/16 11:33:19;;;;;;;5.85;3.58;;;;;;;16.13;50.10;98769.47;5134210;27;20041;-95
2021/10/16 11:35:49;;;;;;;7.88;4.20;;;;;;;15.92;49.76;98766.06;5134649;27;20122;-95
2021/10/16 11:41:19;;;;;;;7.63;4.20;;;;;;;15.89;51.01;98772.41;5107260;27;20368;-94
2021/10/16 11:43:45;;;;;;;11.10;4.63;;;;;;;15.81;50.67;98762.09;5074395;28;20055;-93
2021/10/16 11:46:17;;;;;;;9.82;5.13;;;;;;;15.99;50.84;98772.84;5074189;28;20048;-94
2021/10/16 11:51:43;;;;;;;6.47;3.90;;;;;;;15.62;51.00;98753.16;5115708;27;20384;-94
2021/10/16 11:54:16;;;;;;;7.32;4.40;;;;;;;15.61;52.20;98776.41;5100921;28;20052;-94
2021/10/16 11:56:42;;;;;;;8.48;4.05;;;;;;;15.60;52.64;98761.25;5093670;28;20050;-94
2021/10/16 11:59:08;;;;;;;7.38;3.15;;;;;;;15.79;51.28;98742.50;5094316;28;20071;-94
2021/10/16 12:01:43;;;;;;;8.02;4.18;;;;;;;16.20;51.57;98770.94;5094993;28;20128;-95
2021/10/16 12:04:11;;;;;;;7.97;4.32;;;;;;;16.59;50.93;98751.91;5094882;28;20067;-94
2021/10/16 12:06:38;;;;;;;8.30;4.80;;;;;;;16.72;49.04;98724.41;5096464;28;20044;-94
2021/10/16 12:09:10;;;;;;;7.55;4.32;;;;;;;17.13;48.43;98740.16;5094484;28;20043;-93
2021/10/16 12:11:38;;;;;;;8.77;4.70;;;;;;;17.15;47.81;98720.31;5096418;28;20048;-94